Pays
Station

 

Conditions  météo  pour  Hill Air Force Base/Ogden  -  Etats-Unis    Etats-Unis

  
28 °C
    
 
 

METAR pour Hill Air Force Base/Ogden :

KHIF 222159Z 22006KT 10SM CLR 28/01 A3008 RMK SLP120

 

Voici le bulletin pour Hill Air Force Base/Ogden - Etats-Unis.
 
Le bulletin a été fait il y a 6 heures et 23 minutes, à 21:59 UTC .
Le vent soufflait à la vitesse de 3.1 mètres par seconde de Sud-ouest (220°).
 
La température était de 28 °C, avec un point de rosée à 1 °C.
La température ressentie était de 27 °C.
 
La pression atmosphérique était de 1019 hPa.
L'humidité relative était de 17.4%.
 
Le ciel était clair.
 
La visibilité globale était de 16.1 kilomètres.
 

 
 
 

Pays :   A   B   C   D   E   F   G   H   I   J   K   L   M   N   O   P   Q   R   S   T   U   V   W   Y   Z

 

Partenaires :  Info Météo avec Met'info
Météo Marine avec MeteoMarine.net
Infos Site  |  Infos Légales  |  Crédits  |  Confidentialité
Contactez-nous  |  Ajouter aux favoris
© 2013-2018 METAR - Tous droits réservés